Time;durP1;ratioP1;P1;durP2;ratioP2;P2;SDS_P1;SDS_P2;PMS_P1;PMS_P2;Temp;Humidity;BMP_temperature;BMP_pressure;BME280_temperature;BME280_humidity;BME280_pressure;Samples;Min_cycle;Max_cycle;Signal;HPM_P1;HPM_P2
2023/07/25 00:01:10;;;;;;;7.90;2.10;;;;;;;;;;5057451;28;20071;-64
2023/07/25 00:03:36;;;;;;;5.07;2.85;;;;;;;;;;5034388;28;20400;-64
2023/07/25 00:06:03;;;;;;;7.30;3.03;;;;;;;;;;5047229;28;20136;-64
2023/07/25 00:08:30;;;;;;;7.25;2.42;;;;;;;;;;5055020;28;20057;-64
2023/07/25 00:10:56;;;;;;;8.35;2.22;;;;;;;;;;5040215;28;20124;-64
2023/07/25 00:13:22;;;;;;;3.90;1.92;;;;;;;;;;5048887;28;20072;-64
2023/07/25 00:15:49;;;;;;;4.63;1.92;;;;;;;;;;5051747;28;20131;-64
2023/07/25 00:18:15;;;;;;;7.68;2.30;;;;;;;;;;5049730;28;20049;-64
2023/07/25 00:20:42;;;;;;;6.32;2.03;;;;;;;;;;5049514;28;20071;-64
2023/07/25 00:23:08;;;;;;;4.55;1.90;;;;;;;;;;5043451;28;20052;-64
2023/07/25 00:25:34;;;;;;;4.15;2.40;;;;;;;;;;5059639;28;20631;-64
2023/07/25 00:28:00;;;;;;;4.55;2.20;;;;;;;;;;5055851;28;20052;-64
2023/07/25 00:30:26;;;;;;;5.90;1.75;;;;;;;;;;5056567;28;20482;-64
2023/07/25 00:32:52;;;;;;;6.22;2.42;;;;;;;;;;5052845;28;20029;-64
2023/07/25 00:35:19;;;;;;;4.40;2.08;;;;;;;;;;5057285;28;20046;-64
2023/07/25 00:37:45;;;;;;;4.32;1.95;;;;;;;;;;5037978;28;20052;-64
2023/07/25 00:40:11;;;;;;;6.10;2.58;;;;;;;;;;5054196;28;20067;-64
2023/07/25 00:42:37;;;;;;;4.88;2.30;;;;;;;;;;5052039;28;20052;-65
2023/07/25 00:45:04;;;;;;;4.85;2.40;;;;;;;;;;5060700;28;20500;-64
2023/07/25 00:47:30;;;;;;;4.25;1.80;;;;;;;;;;5052712;28;20132;-64
2023/07/25 00:49:56;;;;;;;5.05;2.10;;;;;;;;;;5055247;28;20047;-64
2023/07/25 00:52:22;;;;;;;6.25;1.95;;;;;;;;;;5053130;28;20160;-65
2023/07/25 00:54:49;;;;;;;6.28;2.53;;;;;;;;;;5057883;28;20040;-64
2023/07/25 00:57:20;;;;;;;4.88;1.90;;;;;;;;;;5051731;28;20072;-64
2023/07/25 00:59:46;;;;;;;5.70;2.42;;;;;;;;;;5045675;28;20090;-64
2023/07/25 01:02:13;;;;;;;3.65;2.00;;;;;;;;;;5047908;28;20745;-64
2023/07/25 01:04:39;;;;;;;5.25;2.20;;;;;;;;;;5053694;28;20374;-64
2023/07/25 01:07:06;;;;;;;3.72;2.15;;;;;;;;;;5048336;28;20037;-64
2023/07/25 01:09:35;;;;;;;4.50;2.00;;;;;;;;;;5044915;28;20140;-64
2023/07/25 01:12:02;;;;;;;2.40;1.55;;;;;;;;;;5041227;28;20071;-64
2023/07/25 01:14:30;;;;;;;4.13;2.08;;;;;;;;;;5040965;28;20045;-64
2023/07/25 01:16:56;;;;;;;3.25;1.98;;;;;;;;;;5034016;28;20045;-65
2023/07/25 01:19:25;;;;;;;6.00;3.13;;;;;;;;;;5048260;28;20095;-64
2023/07/25 01:21:51;;;;;;;6.30;2.35;;;;;;;;;;5046947;28;20470;-64
2023/07/25 01:24:17;;;;;;;5.55;1.92;;;;;;;;;;5050977;28;20037;-64
2023/07/25 01:26:43;;;;;;;5.80;2.28;;;;;;;;;;5027155;28;20657;-64
2023/07/25 01:29:09;;;;;;;4.35;2.17;;;;;;;;;;5043846;28;20072;-64
2023/07/25 01:31:36;;;;;;;5.72;1.98;;;;;;;;;;5045504;28;20115;-64
2023/07/25 01:34:02;;;;;;;8.25;2.22;;;;;;;;;;5052907;28;20150;-64
2023/07/25 01:36:28;;;;;;;4.55;2.00;;;;;;;;;;5052030;28;20190;-65
2023/07/25 01:38:54;;;;;;;4.80;1.92;;;;;;;;;;5049387;28;20087;-65
2023/07/25 01:41:20;;;;;;;7.28;2.50;;;;;;;;;;5056184;28;20075;-65
2023/07/25 01:43:46;;;;;;;5.80;2.70;;;;;;;;;;5047642;28;20059;-65
2023/07/25 01:46:12;;;;;;;4.68;2.03;;;;;;;;;;5052237;28;20394;-65
2023/07/25 01:48:38;;;;;;;4.75;1.83;;;;;;;;;;5054690;28;20512;-65
2023/07/25 01:51:04;;;;;;;4.35;2.20;;;;;;;;;;5059832;28;20036;-65
2023/07/25 01:53:31;;;;;;;3.30;1.70;;;;;;;;;;5054340;28;20072;-65
2023/07/25 01:55:57;;;;;;;5.80;2.28;;;;;;;;;;5053195;28;20186;-64
2023/07/25 01:58:23;;;;;;;6.40;2.63;;;;;;;;;;5049974;28;20274;-65
2023/07/25 02:00:49;;;;;;;8.93;3.05;;;;;;;;;;5024311;28;20051;-65
2023/07/25 02:03:18;;;;;;;6.18;2.28;;;;;;;;;;5050917;28;20049;-65
2023/07/25 02:05:44;;;;;;;5.97;2.78;;;;;;;;;;5054884;28;20040;-65
2023/07/25 02:08:10;;;;;;;7.05;2.42;;;;;;;;;;5053237;28;20085;-64
2023/07/25 02:10:36;;;;;;;4.60;2.38;;;;;;;;;;5036212;28;20116;-65
2023/07/25 02:13:02;;;;;;;5.38;2.90;;;;;;;;;;5040177;28;20191;-65
2023/07/25 02:15:28;;;;;;;8.57;2.72;;;;;;;;;;5048782;28;20068;-65
2023/07/25 02:17:54;;;;;;;5.68;2.33;;;;;;;;;;5050984;28;20118;-65
2023/07/25 02:20:22;;;;;;;9.98;2.65;;;;;;;;;;5054825;28;20041;-65
2023/07/25 02:22:48;;;;;;;4.93;2.50;;;;;;;;;;5044145;28;20171;-65
2023/07/25 02:25:14;;;;;;;5.82;2.60;;;;;;;;;;5053160;28;20040;-65
2023/07/25 02:27:40;;;;;;;6.07;1.95;;;;;;;;;;5041837;28;20041;-65
2023/07/25 02:30:06;;;;;;;5.97;2.60;;;;;;;;;;5049068;28;20374;-65
2023/07/25 02:32:32;;;;;;;9.13;2.03;;;;;;;;;;5043145;28;20478;-65
2023/07/25 02:34:59;;;;;;;8.27;2.35;;;;;;;;;;5051279;28;20086;-64
2023/07/25 02:37:25;;;;;;;5.63;2.78;;;;;;;;;;5051126;28;20507;-65
2023/07/25 02:39:51;;;;;;;5.20;2.25;;;;;;;;;;5050928;28;20132;-65
2023/07/25 02:42:17;;;;;;;3.58;1.80;;;;;;;;;;5046053;28;20144;-65
2023/07/25 02:44:43;;;;;;;6.03;2.10;;;;;;;;;;5053076;28;20110;-65
2023/07/25 02:47:09;;;;;;;6.88;2.08;;;;;;;;;;5052804;28;20529;-65
2023/07/25 02:49:35;;;;;;;8.30;2.63;;;;;;;;;;5055055;28;20513;-65
2023/07/25 02:52:02;;;;;;;4.05;2.15;;;;;;;;;;5049315;28;20047;-65
2023/07/25 02:54:28;;;;;;;3.65;2.20;;;;;;;;;;5056792;28;20037;-65
2023/07/25 02:56:54;;;;;;;3.70;2.40;;;;;;;;;;5051611;28;20090;-65
2023/07/25 02:59:20;;;;;;;3.75;1.80;;;;;;;;;;5048302;28;20489;-65
2023/07/25 03:01:46;;;;;;;8.20;2.20;;;;;;;;;;5052089;28;20041;-66
2023/07/25 03:04:12;;;;;;;4.65;1.75;;;;;;;;;;5057289;28;20044;-65
2023/07/25 03:06:38;;;;;;;6.25;2.15;;;;;;;;;;5051254;28;20041;-65
2023/07/25 03:09:04;;;;;;;5.72;1.70;;;;;;;;;;5021856;28;20068;-65
2023/07/25 03:11:31;;;;;;;4.22;2.20;;;;;;;;;;5040870;28;20102;-65
2023/07/25 03:13:57;;;;;;;5.93;2.10;;;;;;;;;;5054415;28;20110;-65
2023/07/25 03:16:23;;;;;;;7.07;2.50;;;;;;;;;;5052099;28;20524;-65
2023/07/25 03:18:49;;;;;;;5.03;1.83;;;;;;;;;;5050708;28;20036;-65
2023/07/25 03:21:15;;;;;;;7.63;2.45;;;;;;;;;;5046988;28;20521;-65
2023/07/25 03:23:41;;;;;;;10.50;2.80;;;;;;;;;;5042418;28;20051;-65
2023/07/25 03:26:07;;;;;;;7.03;2.10;;;;;;;;;;5048974;28;20041;-64
2023/07/25 03:28:33;;;;;;;3.80;1.90;;;;;;;;;;5046738;28;20368;-64
2023/07/25 03:31:00;;;;;;;4.85;2.47;;;;;;;;;;5038554;28;20040;-65
2023/07/25 03:33:27;;;;;;;4.10;1.90;;;;;;;;;;5038150;28;20399;-65
2023/07/25 03:35:54;;;;;;;4.68;2.47;;;;;;;;;;5041130;28;20033;-64
2023/07/25 03:38:20;;;;;;;4.45;2.00;;;;;;;;;;5045188;28;20125;-65
2023/07/25 03:40:46;;;;;;;3.92;1.67;;;;;;;;;;5042615;28;20605;-65
2023/07/25 03:43:13;;;;;;;8.52;2.10;;;;;;;;;;5044766;28;20077;-64
2023/07/25 03:45:39;;;;;;;3.05;1.60;;;;;;;;;;5046901;28;20123;-64
2023/07/25 03:48:05;;;;;;;4.90;2.33;;;;;;;;;;5053583;28;20132;-65
2023/07/25 03:50:32;;;;;;;5.65;1.73;;;;;;;;;;5046580;28;20529;-64
2023/07/25 03:52:59;;;;;;;5.68;2.28;;;;;;;;;;5055706;28;20118;-66
2023/07/25 03:55:25;;;;;;;6.32;2.58;;;;;;;;;;5047081;28;20107;-64
2023/07/25 03:57:51;;;;;;;6.35;2.05;;;;;;;;;;5049982;28;20098;-65
2023/07/25 04:00:17;;;;;;;4.47;1.40;;;;;;;;;;5050538;28;20067;-65
2023/07/25 04:02:44;;;;;;;4.32;1.83;;;;;;;;;;5058623;28;20415;-65
2023/07/25 04:05:10;;;;;;;6.50;2.60;;;;;;;;;;5028359;28;20048;-64
2023/07/25 04:07:36;;;;;;;5.03;1.80;;;;;;;;;;5054510;28;20036;-64
2023/07/25 04:10:03;;;;;;;7.72;2.00;;;;;;;;;;5035298;28;20060;-65
2023/07/25 04:12:29;;;;;;;4.18;2.38;;;;;;;;;;5045010;28;20029;-64
2023/07/25 04:14:55;;;;;;;5.75;2.20;;;;;;;;;;5044867;28;20056;-64
2023/07/25 04:17:21;;;;;;;5.93;1.90;;;;;;;;;;5049321;28;20425;-64
2023/07/25 04:19:47;;;;;;;4.22;1.88;;;;;;;;;;5043415;28;20084;-64
2023/07/25 04:22:13;;;;;;;6.70;2.05;;;;;;;;;;5046753;28;20052;-65
2023/07/25 04:24:39;;;;;;;5.00;2.38;;;;;;;;;;5045734;28;20041;-65
2023/07/25 04:27:06;;;;;;;3.33;1.73;;;;;;;;;;5042199;28;20030;-65
2023/07/25 04:29:32;;;;;;;6.22;2.45;;;;;;;;;;5048311;28;20041;-65
2023/07/25 04:31:58;;;;;;;5.03;1.80;;;;;;;;;;5038338;28;20045;-65
2023/07/25 04:34:24;;;;;;;5.63;1.92;;;;;;;;;;5055730;28;20571;-65
2023/07/25 04:36:50;;;;;;;5.88;1.98;;;;;;;;;;5057790;28;20046;-65
2023/07/25 04:39:16;;;;;;;7.72;2.65;;;;;;;;;;5049582;28;20079;-65
2023/07/25 04:41:42;;;;;;;4.03;1.90;;;;;;;;;;5047625;28;20036;-65
2023/07/25 04:44:09;;;;;;;5.55;2.00;;;;;;;;;;5051403;28;20041;-65
2023/07/25 04:46:35;;;;;;;5.45;1.80;;;;;;;;;;5058484;28;20158;-64
2023/07/25 04:49:01;;;;;;;4.85;2.22;;;;;;;;;;5049884;28;20052;-65
2023/07/25 04:51:27;;;;;;;7.57;1.77;;;;;;;;;;5050716;28;20120;-65
2023/07/25 04:53:53;;;;;;;14.13;2.28;;;;;;;;;;5055606;28;20087;-64
2023/07/25 04:56:19;;;;;;;5.43;1.88;;;;;;;;;;5042338;28;20063;-65
2023/07/25 04:58:46;;;;;;;6.32;2.30;;;;;;;;;;5052718;28;20053;-65
2023/07/25 05:01:12;;;;;;;5.32;1.73;;;;;;;;;;5050813;28;20037;-65
2023/07/25 05:03:38;;;;;;;4.18;1.60;;;;;;;;;;5053550;28;20033;-65
2023/07/25 05:06:04;;;;;;;5.57;1.83;;;;;;;;;;5057896;28;20135;-65
2023/07/25 05:08:30;;;;;;;3.90;1.85;;;;;;;;;;5045208;28;20318;-65
2023/07/25 05:10:56;;;;;;;4.68;1.42;;;;;;;;;;5046726;28;20107;-65
2023/07/25 05:13:23;;;;;;;2.97;1.75;;;;;;;;;;5047099;28;20490;-65
2023/07/25 05:15:49;;;;;;;3.85;2.13;;;;;;;;;;5049507;28;20114;-65
2023/07/25 05:18:15;;;;;;;6.65;2.03;;;;;;;;;;5047020;28;20029;-65
2023/07/25 05:20:41;;;;;;;3.92;1.90;;;;;;;;;;5050770;28;20048;-65
2023/07/25 05:23:08;;;;;;;3.92;1.95;;;;;;;;;;5047479;28;20041;-64
2023/07/25 05:25:34;;;;;;;7.93;2.03;;;;;;;;;;5037697;28;20041;-65
2023/07/25 05:28:00;;;;;;;6.78;1.48;;;;;;;;;;5041955;28;20079;-65
2023/07/25 05:30:26;;;;;;;4.18;1.42;;;;;;;;;;5044470;28;20044;-65
2023/07/25 05:32:53;;;;;;;4.93;1.40;;;;;;;;;;5038127;28;20048;-65
2023/07/25 05:35:19;;;;;;;3.67;1.58;;;;;;;;;;5035752;28;20066;-65
2023/07/25 05:37:45;;;;;;;6.15;1.88;;;;;;;;;;5048691;28;20048;-65
2023/07/25 05:40:11;;;;;;;8.68;1.88;;;;;;;;;;5050217;28;20040;-65
2023/07/25 05:42:37;;;;;;;3.60;1.80;;;;;;;;;;5053940;28;20121;-65
2023/07/25 05:45:04;;;;;;;3.80;1.38;;;;;;;;;;5050904;28;20041;-65
2023/07/25 05:47:30;;;;;;;3.00;1.50;;;;;;;;;;5046600;28;20045;-65
2023/07/25 05:49:57;;;;;;;4.45;1.60;;;;;;;;;;5057115;28;20343;-65
2023/07/25 05:52:24;;;;;;;3.97;1.67;;;;;;;;;;5054285;28;20072;-65
2023/07/25 05:54:51;;;;;;;5.53;1.88;;;;;;;;;;5046435;28;20037;-65
2023/07/25 05:57:17;;;;;;;2.67;1.50;;;;;;;;;;5047627;28;20049;-65
2023/07/25 05:59:43;;;;;;;5.72;1.65;;;;;;;;;;5054134;28;20040;-65
2023/07/25 06:02:10;;;;;;;6.47;1.30;;;;;;;;;;5047697;28;20041;-65
2023/07/25 06:04:36;;;;;;;3.83;1.35;;;;;;;;;;5042092;28;20451;-65
2023/07/25 06:07:02;;;;;;;3.17;1.40;;;;;;;;;;5051485;28;20057;-65
2023/07/25 06:09:28;;;;;;;2.75;1.42;;;;;;;;;;5040219;28;20046;-65
2023/07/25 06:11:55;;;;;;;5.13;1.30;;;;;;;;;;5036287;28;20461;-65
2023/07/25 06:14:21;;;;;;;6.03;1.67;;;;;;;;;;5046749;28;20393;-65
2023/07/25 06:16:48;;;;;;;4.05;1.17;;;;;;;;;;5052684;28;20058;-65
2023/07/25 06:19:14;;;;;;;4.10;1.90;;;;;;;;;;5034470;28;20044;-65
2023/07/25 06:21:40;;;;;;;2.72;1.30;;;;;;;;;;5040450;28;20049;-65
2023/07/25 06:24:06;;;;;;;3.60;1.55;;;;;;;;;;5037240;28;20159;-65
2023/07/25 06:26:32;;;;;;;6.60;0.98;;;;;;;;;;5038029;28;20043;-65
2023/07/25 06:28:59;;;;;;;2.13;1.05;;;;;;;;;;5038880;28;20037;-65
2023/07/25 06:31:25;;;;;;;3.67;1.23;;;;;;;;;;5046415;28;20043;-65
2023/07/25 06:33:51;;;;;;;2.13;0.88;;;;;;;;;;5046039;28;20076;-65
2023/07/25 06:36:17;;;;;;;2.47;1.02;;;;;;;;;;5051314;28;20132;-65
2023/07/25 06:38:43;;;;;;;3.78;1.33;;;;;;;;;;5041729;28;20079;-65
2023/07/25 06:41:09;;;;;;;4.78;1.45;;;;;;;;;;5040348;28;20113;-65
2023/07/25 06:43:35;;;;;;;6.05;1.63;;;;;;;;;;5049884;28;20155;-65
2023/07/25 06:46:01;;;;;;;4.20;1.35;;;;;;;;;;5049925;28;20482;-65
2023/07/25 06:48:28;;;;;;;2.22;1.40;;;;;;;;;;5039536;28;20064;-65
2023/07/25 06:50:54;;;;;;;3.30;1.30;;;;;;;;;;5025347;28;20069;-65
2023/07/25 06:53:20;;;;;;;2.70;1.13;;;;;;;;;;5042595;28;20361;-65
2023/07/25 06:55:46;;;;;;;3.15;1.27;;;;;;;;;;5044801;28;20136;-65
2023/07/25 06:58:13;;;;;;;6.85;1.33;;;;;;;;;;5046216;28;20048;-65
2023/07/25 07:00:39;;;;;;;3.50;1.25;;;;;;;;;;5045804;28;20490;-65
2023/07/25 07:03:06;;;;;;;5.50;0.95;;;;;;;;;;5030998;28;20041;-65
2023/07/25 07:05:32;;;;;;;1.48;1.00;;;;;;;;;;5036696;28;20067;-65
2023/07/25 07:07:59;;;;;;;11.32;1.42;;;;;;;;;;5040927;28;20060;-65
2023/07/25 07:10:27;;;;;;;3.25;1.05;;;;;;;;;;5039882;28;20624;-65
2023/07/25 07:12:53;;;;;;;3.55;1.40;;;;;;;;;;5038295;28;20040;-65
2023/07/25 07:15:24;;;;;;;3.50;1.00;;;;;;;;;;5040512;28;20419;-65
2023/07/25 07:17:53;;;;;;;1.85;1.00;;;;;;;;;;5036523;28;20041;-65
2023/07/25 07:20:20;;;;;;;4.47;1.23;;;;;;;;;;5024817;28;20040;-65
2023/07/25 07:22:46;;;;;;;3.63;0.95;;;;;;;;;;5034649;28;20059;-66
2023/07/25 07:25:12;;;;;;;4.45;1.95;;;;;;;;;;5032655;28;20037;-65
2023/07/25 07:27:39;;;;;;;1.85;0.85;;;;;;;;;;5031074;28;20120;-66
2023/07/25 07:30:05;;;;;;;4.70;1.25;;;;;;;;;;5039238;28;20451;-65
2023/07/25 07:32:31;;;;;;;3.10;1.73;;;;;;;;;;5043283;28;20040;-65
2023/07/25 07:34:57;;;;;;;3.13;1.30;;;;;;;;;;5032681;28;20051;-65
2023/07/25 07:37:24;;;;;;;3.30;0.95;;;;;;;;;;5039178;28;20052;-65
2023/07/25 07:39:50;;;;;;;4.57;1.63;;;;;;;;;;5039072;28;20041;-65
2023/07/25 07:42:16;;;;;;;3.67;1.10;;;;;;;;;;5038536;28;20040;-65
2023/07/25 07:44:42;;;;;;;3.92;1.35;;;;;;;;;;5042993;28;20541;-65
2023/07/25 07:47:08;;;;;;;5.93;1.48;;;;;;;;;;5039598;28;20056;-64
2023/07/25 07:49:34;;;;;;;1.90;0.98;;;;;;;;;;5046208;28;20254;-65
2023/07/25 07:52:01;;;;;;;3.58;1.20;;;;;;;;;;5024140;28;20045;-64
2023/07/25 07:54:27;;;;;;;2.42;1.20;;;;;;;;;;5047424;28;20259;-66
2023/07/25 07:56:53;;;;;;;2.45;1.35;;;;;;;;;;5038941;28;20076;-65
2023/07/25 07:59:19;;;;;;;3.97;0.90;;;;;;;;;;5025501;28;20040;-65
2023/07/25 08:01:45;;;;;;;3.53;1.45;;;;;;;;;;5053050;28;20067;-66
2023/07/25 08:04:12;;;;;;;2.42;1.10;;;;;;;;;;5045153;28;20779;-65
2023/07/25 08:06:38;;;;;;;3.03;1.08;;;;;;;;;;5046274;28;20107;-66
2023/07/25 08:09:04;;;;;;;2.25;1.38;;;;;;;;;;5041562;28;20128;-65
2023/07/25 08:11:31;;;;;;;3.55;1.80;;;;;;;;;;5042880;28;20044;-66
2023/07/25 08:13:57;;;;;;;2.20;1.30;;;;;;;;;;5044405;28;20036;-65
2023/07/25 08:16:23;;;;;;;2.97;1.30;;;;;;;;;;5041441;28;20049;-65
2023/07/25 08:18:49;;;;;;;4.13;1.20;;;;;;;;;;5043765;28;20071;-65
2023/07/25 08:21:15;;;;;;;4.35;0.95;;;;;;;;;;5039102;28;20087;-65
2023/07/25 08:23:41;;;;;;;7.32;1.35;;;;;;;;;;5038051;28;20044;-64
2023/07/25 08:26:07;;;;;;;5.07;1.38;;;;;;;;;;5042719;28;20055;-64
2023/07/25 08:28:34;;;;;;;2.85;1.20;;;;;;;;;;5038011;28;20395;-64
2023/07/25 08:31:05;;;;;;;3.22;1.27;;;;;;;;;;5039282;28;20071;-65
2023/07/25 08:33:32;;;;;;;3.45;1.58;;;;;;;;;;5027563;28;20043;-65
2023/07/25 08:35:58;;;;;;;3.75;1.10;;;;;;;;;;5041350;28;20053;-65
2023/07/25 08:38:24;;;;;;;2.53;1.17;;;;;;;;;;5038552;28;20574;-64
2023/07/25 08:41:11;;;;;;;7.63;1.80;;;;;;;;;;5039536;28;20041;-65
2023/07/25 08:43:40;;;;;;;4.05;1.33;;;;;;;;;;5036110;28;20048;-65
2023/07/25 08:46:10;;;;;;;3.83;1.65;;;;;;;;;;5045150;28;20063;-65
2023/07/25 08:48:42;;;;;;;3.58;1.27;;;;;;;;;;5050740;28;20087;-65
2023/07/25 08:51:20;;;;;;;5.63;1.73;;;;;;;;;;5040234;28;20097;-64
2023/07/25 08:54:01;;;;;;;6.68;1.25;;;;;;;;;;5043694;28;20063;-65
2023/07/25 08:56:28;;;;;;;4.63;1.70;;;;;;;;;;5039810;28;20423;-64
2023/07/25 08:58:55;;;;;;;4.13;1.00;;;;;;;;;;5038968;28;20582;-64
2023/07/25 09:01:22;;;;;;;5.63;1.35;;;;;;;;;;5039751;28;20048;-65
2023/07/25 09:03:49;;;;;;;7.40;2.03;;;;;;;;;;5045813;28;20373;-65
2023/07/25 09:06:15;;;;;;;3.42;1.10;;;;;;;;;;5037704;28;20065;-65
2023/07/25 09:08:41;;;;;;;7.78;1.88;;;;;;;;;;5024447;28;20407;-65
2023/07/25 09:11:09;;;;;;;3.15;1.30;;;;;;;;;;5041805;28;20057;-65
2023/07/25 09:13:36;;;;;;;3.28;1.40;;;;;;;;;;5045149;28;20078;-65
2023/07/25 09:16:02;;;;;;;3.42;1.33;;;;;;;;;;5042301;28;20503;-65
2023/07/25 09:18:29;;;;;;;3.20;1.35;;;;;;;;;;5044896;28;20037;-65
2023/07/25 09:20:55;;;;;;;4.57;1.65;;;;;;;;;;5042073;28;20044;-64
2023/07/25 09:23:21;;;;;;;7.97;1.88;;;;;;;;;;5039298;28;20055;-65
2023/07/25 09:25:48;;;;;;;3.33;1.95;;;;;;;;;;5023079;28;20109;-65
2023/07/25 09:28:14;;;;;;;2.67;1.20;;;;;;;;;;5039011;28;20686;-64
2023/07/25 09:30:50;;;;;;;7.53;1.90;;;;;;;;;;5037834;28;20037;-65
2023/07/25 09:33:25;;;;;;;3.10;1.15;;;;;;;;;;5043657;28;20040;-65
2023/07/25 09:35:51;;;;;;;4.88;1.40;;;;;;;;;;5050061;28;20529;-65
2023/07/25 09:38:18;;;;;;;1.73;0.90;;;;;;;;;;5048873;28;20346;-65
2023/07/25 09:40:46;;;;;;;3.47;1.30;;;;;;;;;;5046885;28;20079;-65
2023/07/25 09:43:32;;;;;;;2.80;1.10;;;;;;;;;;5042512;28;20105;-65
2023/07/25 09:45:58;;;;;;;3.30;1.27;;;;;;;;;;5041253;28;20045;-64
2023/07/25 09:48:24;;;;;;;2.38;1.42;;;;;;;;;;5043167;28;20087;-65
2023/07/25 09:50:51;;;;;;;2.30;1.35;;;;;;;;;;5046645;28;20124;-65
2023/07/25 09:53:17;;;;;;;5.32;1.55;;;;;;;;;;5053429;28;20119;-65
2023/07/25 09:55:46;;;;;;;5.25;1.92;;;;;;;;;;5044198;28;20284;-65
2023/07/25 09:58:12;;;;;;;3.65;1.33;;;;;;;;;;5041085;28;20499;-65
2023/07/25 10:00:40;;;;;;;5.15;1.25;;;;;;;;;;5042059;28;20048;-65
2023/07/25 10:03:09;;;;;;;2.55;1.10;;;;;;;;;;5023269;28;20048;-65
2023/07/25 10:05:38;;;;;;;2.10;0.93;;;;;;;;;;5038423;28;20033;-64
2023/07/25 10:08:05;;;;;;;2.60;1.00;;;;;;;;;;5039868;28;20055;-65
2023/07/25 10:10:31;;;;;;;2.83;1.20;;;;;;;;;;5013855;28;20150;-65
2023/07/25 10:12:57;;;;;;;1.52;1.02;;;;;;;;;;5035005;28;20051;-65
2023/07/25 10:15:24;;;;;;;4.28;1.60;;;;;;;;;;5041793;28;20043;-65
2023/07/25 10:17:50;;;;;;;2.50;1.23;;;;;;;;;;5047055;28;20329;-65
2023/07/25 10:20:22;;;;;;;3.08;1.33;;;;;;;;;;5023530;28;20112;-65
2023/07/25 10:22:50;;;;;;;;;;;;;;;;;;5029026;28;20966;-65
2023/07/25 10:25:19;;;;;;;3.70;1.23;;;;;;;;;;5036606;28;19964;-65
2023/07/25 10:27:45;;;;;;;4.68;1.20;;;;;;;;;;5034968;28;20170;-65
2023/07/25 10:30:24;;;;;;;4.03;1.73;;;;;;;;;;5041544;28;20261;-65
2023/07/25 10:32:52;;;;;;;2.88;1.00;;;;;;;;;;5040107;28;20174;-65
2023/07/25 10:35:38;;;;;;;2.05;1.08;;;;;;;;;;5007064;28;20560;-64
2023/07/25 10:38:09;;;;;;;3.33;1.50;;;;;;;;;;5038312;28;20096;-65
2023/07/25 10:40:55;;;;;;;4.18;1.70;;;;;;;;;;5038193;28;20044;-65
2023/07/25 10:43:23;;;;;;;4.95;1.63;;;;;;;;;;5040220;28;20040;-65
2023/07/25 10:45:50;;;;;;;1.83;0.80;;;;;;;;;;5049623;28;20124;-65
2023/07/25 10:48:36;;;;;;;3.90;1.17;;;;;;;;;;5049002;28;20040;-65
2023/07/25 10:51:06;;;;;;;2.80;0.93;;;;;;;;;;5039756;28;20502;-65
2023/07/25 10:53:32;;;;;;;3.50;1.33;;;;;;;;;;5036718;28;20045;-65
2023/07/25 10:56:07;;;;;;;2.50;1.00;;;;;;;;;;5048725;28;20490;-64
2023/07/25 10:58:52;;;;;;;1.77;1.02;;;;;;;;;;5040257;28;20539;-65
2023/07/25 11:01:32;;;;;;;5.35;1.65;;;;;;;;;;5037381;28;20118;-64
2023/07/25 11:04:18;;;;;;;6.63;1.20;;;;;;;;;;5050800;28;20043;-65
2023/07/25 11:06:44;;;;;;;2.83;1.10;;;;;;;;;;5037866;28;20047;-65
2023/07/25 11:09:11;;;;;;;3.53;1.10;;;;;;;;;;5037723;28;20056;-65
2023/07/25 11:11:42;;;;;;;1.70;1.20;;;;;;;;;;5034735;28;21169;-65
2023/07/25 11:14:08;;;;;;;2.90;1.48;;;;;;;;;;5037082;28;20049;-64
2023/07/25 11:16:34;;;;;;;1.98;1.05;;;;;;;;;;5042220;28;20033;-65
2023/07/25 11:19:01;;;;;;;1.92;1.10;;;;;;;;;;5043160;28;20036;-65
2023/07/25 11:21:28;;;;;;;3.55;1.75;;;;;;;;;;5023723;28;20653;-65
2023/07/25 11:24:07;;;;;;;2.28;1.10;;;;;;;;;;5040005;28;20140;-65
2023/07/25 11:26:36;;;;;;;3.67;1.08;;;;;;;;;;5026572;28;20392;-65
2023/07/25 11:29:03;;;;;;;3.33;1.10;;;;;;;;;;5008986;28;20052;-65
2023/07/25 11:31:29;;;;;;;2.55;0.93;;;;;;;;;;5029118;28;20044;-65
2023/07/25 11:33:56;;;;;;;1.80;0.73;;;;;;;;;;5033495;28;20736;-65
2023/07/25 11:36:22;;;;;;;3.47;1.25;;;;;;;;;;5037446;28;20451;-66
2023/07/25 11:38:48;;;;;;;2.17;0.98;;;;;;;;;;5031784;28;20041;-66
2023/07/25 11:41:14;;;;;;;0.98;0.85;;;;;;;;;;5015827;28;20127;-66
2023/07/25 11:43:41;;;;;;;4.40;1.35;;;;;;;;;;5033781;28;20512;-66
2023/07/25 11:46:07;;;;;;;2.63;1.20;;;;;;;;;;5048055;28;20154;-66
2023/07/25 11:48:33;;;;;;;3.35;1.08;;;;;;;;;;5044792;28;20076;-66
2023/07/25 11:50:59;;;;;;;5.28;1.65;;;;;;;;;;5049539;28;20413;-66
2023/07/25 11:53:27;;;;;;;3.00;1.10;;;;;;;;;;5042120;28;20060;-66
2023/07/25 11:55:55;;;;;;;2.53;1.45;;;;;;;;;;5043604;28;20063;-66
2023/07/25 11:58:22;;;;;;;3.47;1.02;;;;;;;;;;5044596;28;20106;-66
2023/07/25 12:00:54;;;;;;;6.68;1.92;;;;;;;;;;5053247;28;20134;-66
2023/07/25 12:03:21;;;;;;;7.20;1.75;;;;;;;;;;5038695;28;20402;-66
2023/07/25 12:06:05;;;;;;;2.70;1.13;;;;;;;;;;5041830;28;20336;-66
2023/07/25 12:08:35;;;;;;;3.00;1.15;;;;;;;;;;5025219;28;20049;-66
2023/07/25 12:11:02;;;;;;;4.55;1.13;;;;;;;;;;5023135;28;20088;-66
2023/07/25 12:13:28;;;;;;;3.13;1.40;;;;;;;;;;5040312;28;20045;-65
2023/07/25 12:16:00;;;;;;;3.90;1.48;;;;;;;;;;5023635;28;20048;-66
2023/07/25 12:18:26;;;;;;;6.20;1.52;;;;;;;;;;5049295;28;20044;-66
2023/07/25 12:20:52;;;;;;;3.50;1.50;;;;;;;;;;5044825;28;20117;-66
2023/07/25 12:23:26;;;;;;;4.10;1.20;;;;;;;;;;5040331;28;20125;-66
2023/07/25 12:25:53;;;;;;;2.85;1.00;;;;;;;;;;5040181;28;20463;-66
2023/07/25 12:28:19;;;;;;;3.58;0.85;;;;;;;;;;5040026;28;20502;-66
2023/07/25 12:30:45;;;;;;;3.90;1.63;;;;;;;;;;5034168;28;20567;-66
2023/07/25 12:33:11;;;;;;;1.80;1.33;;;;;;;;;;5019655;28;20037;-66
2023/07/25 12:35:38;;;;;;;5.30;1.10;;;;;;;;;;5026818;28;20041;-66
2023/07/25 12:38:04;;;;;;;2.53;1.40;;;;;;;;;;5011853;28;20053;-66
2023/07/25 12:40:30;;;;;;;5.35;0.95;;;;;;;;;;5034052;28;20056;-66
2023/07/25 12:42:56;;;;;;;1.00;0.70;;;;;;;;;;5037540;28;20601;-66
2023/07/25 12:45:23;;;;;;;3.17;1.20;;;;;;;;;;5048138;28;20115;-66
2023/07/25 12:47:49;;;;;;;3.17;1.33;;;;;;;;;;5026191;28;20164;-66
2023/07/25 12:50:15;;;;;;;2.45;1.25;;;;;;;;;;5042840;28;20849;-66
2023/07/25 12:52:41;;;;;;;1.52;0.70;;;;;;;;;;5042858;28;20041;-66
2023/07/25 12:55:08;;;;;;;2.08;1.15;;;;;;;;;;5049670;28;20120;-66
2023/07/25 12:57:34;;;;;;;4.47;1.05;;;;;;;;;;5042977;28;20052;-66
2023/07/25 13:00:01;;;;;;;2.92;1.20;;;;;;;;;;5044363;28;20433;-66
2023/07/25 13:02:27;;;;;;;2.90;0.80;;;;;;;;;;5043727;28;20461;-66
2023/07/25 13:04:53;;;;;;;2.53;1.20;;;;;;;;;;5047231;28;20455;-66
2023/07/25 13:07:19;;;;;;;1.50;0.80;;;;;;;;;;5039602;28;20056;-66
2023/07/25 13:09:45;;;;;;;1.83;0.82;;;;;;;;;;5042533;28;20057;-66
2023/07/25 13:12:12;;;;;;;1.95;0.98;;;;;;;;;;5043743;28;20111;-66
2023/07/25 13:14:38;;;;;;;2.97;1.05;;;;;;;;;;5045963;28;20110;-66
2023/07/25 13:17:04;;;;;;;2.92;0.95;;;;;;;;;;5043543;28;20033;-66
2023/07/25 13:19:30;;;;;;;1.92;1.10;;;;;;;;;;5021983;28;20116;-66
2023/07/25 13:21:56;;;;;;;2.90;0.80;;;;;;;;;;5041860;28;20042;-66
2023/07/25 13:24:22;;;;;;;1.38;0.82;;;;;;;;;;5041134;28;20110;-66
2023/07/25 13:26:49;;;;;;;1.70;0.88;;;;;;;;;;5034448;28;20132;-66
2023/07/25 13:29:15;;;;;;;5.03;1.13;;;;;;;;;;5014602;28;20471;-65
2023/07/25 13:31:41;;;;;;;1.20;0.70;;;;;;;;;;5049110;28;20044;-66
2023/07/25 13:34:07;;;;;;;3.22;1.02;;;;;;;;;;5044011;28;20356;-66
2023/07/25 13:36:33;;;;;;;2.10;1.05;;;;;;;;;;5043463;28;20398;-66
2023/07/25 13:38:59;;;;;;;1.50;0.75;;;;;;;;;;5028015;28;20037;-66
2023/07/25 13:41:26;;;;;;;4.00;1.02;;;;;;;;;;5039388;28;20034;-66
2023/07/25 13:43:52;;;;;;;2.05;1.40;;;;;;;;;;5043269;28;20040;-66
2023/07/25 13:46:18;;;;;;;2.20;1.08;;;;;;;;;;5049598;28;20052;-65
2023/07/25 13:48:47;;;;;;;2.45;1.10;;;;;;;;;;5047087;28;20056;-66
2023/07/25 13:51:14;;;;;;;3.55;1.30;;;;;;;;;;5052353;28;20029;-66
2023/07/25 13:53:40;;;;;;;2.20;1.33;;;;;;;;;;5049832;28;20138;-66
2023/07/25 13:56:06;;;;;;;2.15;1.33;;;;;;;;;;5045739;28;20045;-66
2023/07/25 13:58:32;;;;;;;3.90;1.50;;;;;;;;;;5039136;28;20544;-66
2023/07/25 14:00:58;;;;;;;2.13;1.10;;;;;;;;;;5050072;28;20584;-66
2023/07/25 14:03:24;;;;;;;4.43;1.17;;;;;;;;;;5041900;28;20558;-66
2023/07/25 14:05:51;;;;;;;3.13;1.55;;;;;;;;;;5043347;28;20036;-66
2023/07/25 14:08:17;;;;;;;3.08;1.45;;;;;;;;;;5028765;28;20095;-66
2023/07/25 14:10:43;;;;;;;4.47;1.02;;;;;;;;;;5042941;28;20509;-66
2023/07/25 14:13:09;;;;;;;3.92;1.40;;;;;;;;;;5039507;28;20041;-66
2023/07/25 14:15:36;;;;;;;3.03;1.52;;;;;;;;;;5035390;28;20029;-66
2023/07/25 14:18:02;;;;;;;2.90;1.02;;;;;;;;;;5040159;28;20076;-66
2023/07/25 14:20:28;;;;;;;4.07;1.27;;;;;;;;;;5017577;28;20573;-66
2023/07/25 14:22:55;;;;;;;2.13;0.93;;;;;;;;;;5041908;28;20394;-66
2023/07/25 14:25:21;;;;;;;1.63;1.05;;;;;;;;;;5026805;28;20139;-66
2023/07/25 14:27:48;;;;;;;3.97;1.08;;;;;;;;;;5015564;28;20110;-66
2023/07/25 14:30:15;;;;;;;3.00;1.30;;;;;;;;;;5030049;28;20143;-66
2023/07/25 14:32:41;;;;;;;1.98;0.73;;;;;;;;;;5007045;28;20036;-66
2023/07/25 14:35:07;;;;;;;4.78;1.33;;;;;;;;;;5034209;28;20442;-66
2023/07/25 14:37:34;;;;;;;2.80;1.27;;;;;;;;;;5046921;28;20482;-68
2023/07/25 14:40:00;;;;;;;4.53;1.20;;;;;;;;;;5044481;28;20505;-66
2023/07/25 14:42:26;;;;;;;3.90;1.08;;;;;;;;;;5041171;28;20045;-66